CheckWX is a tool to help pilots better visualize weather data.  It is not intended as a substitute for an official pre-flight weather briefing.

16:32:33 UTC

TJSJ METAR
Luis Munoz Marin International Airport
San Juan, Puerto Rico, USA
Current

37 mins ago

TJSJ 201556Z 07013KT 10SM FEW033 SCT060 SCT120 31/24 A2999 RMK AO2 SLP155 VCSH SW T03110244
Observed
Oct-20 @ 15:56 UTC
Wind
  • 070° at 13 KTS
Visibility
10 SM
Flight Rules
VFR
Cloud Levels
  • Few at 3,300' AGL
  • Scattered at 6,000' AGL
  • Scattered at 12,000' AGL
Temperature
31°C / 88°F
Dewpoint
24°C / 75°F
Heat Index
37°C / 98°F
Humidity
66%
Altimeter
29.99" Hg
Pressure
1015.62 hPa
Previous

2 hours ago

TJSJ 201456Z 08015G22KT 10SM SCT025 SCT085 31/24 A3001 RMK AO2 SLP160 VCSH N 60000 T03060244 50003
Observed
Oct-20 @ 14:56 UTC
Wind
  • 080° at 15 KTS
  • Gusting to 22 KTS
Visibility
10 SM
Flight Rules
VFR
Cloud Levels
  • Scattered at 2,500' AGL
  • Scattered at 8,500' AGL
Temperature
31°C / 88°F
Dewpoint
24°C / 75°F
Heat Index
37°C / 98°F
Humidity
66%
Altimeter
30.01" Hg
Pressure
1016.22 hPa
Previous

3 hours ago

TJSJ 201356Z 12007KT 10SM FEW034 SCT044 SCT090 29/24 A3002 RMK AO2 RAB24E41 SLP163 VCSH SE S NW P0000 T02890239
Observed
Oct-20 @ 13:56 UTC
Wind
  • 120° at 7 KTS
Visibility
10 SM
Flight Rules
VFR
Cloud Levels
  • Few at 3,400' AGL
  • Scattered at 4,400' AGL
  • Scattered at 9,000' AGL
Temperature
29°C / 84°F
Dewpoint
24°C / 75°F
Heat Index
33°C / 92°F
Humidity
74%
Altimeter
30.02" Hg
Pressure
1016.62 hPa
Current Rain
0.01"